sensor_id;sensor_type;location;lat;lon;timestamp;temperature;humidity
18948;DHT22;9607;51.600;7.558;2022-12-16T00:01:07;-7.10;99.90
18948;DHT22;9607;51.600;7.558;2022-12-16T00:03:35;-7.10;99.90
18948;DHT22;9607;51.600;7.558;2022-12-16T00:06:03;-7.20;99.90
18948;DHT22;9607;51.600;7.558;2022-12-16T00:08:31;-7.20;99.90
18948;DHT22;9607;51.600;7.558;2022-12-16T00:11:03;-7.20;99.90
18948;DHT22;9607;51.600;7.558;2022-12-16T00:13:32;-7.30;99.90
18948;DHT22;9607;51.600;7.558;2022-12-16T00:16:04;-7.40;99.90
18948;DHT22;9607;51.600;7.558;2022-12-16T00:18:31;-7.30;99.90
18948;DHT22;9607;51.600;7.558;2022-12-16T00:21:01;-7.40;99.90
18948;DHT22;9607;51.600;7.558;2022-12-16T00:23:29;-7.40;99.90
18948;DHT22;9607;51.600;7.558;2022-12-16T00:25:56;-7.40;99.90
18948;DHT22;9607;51.600;7.558;2022-12-16T00:28:25;-7.40;99.90
18948;DHT22;9607;51.600;7.558;2022-12-16T00:30:53;-7.40;99.90
18948;DHT22;9607;51.600;7.558;2022-12-16T00:33:22;-7.40;99.90
18948;DHT22;9607;51.600;7.558;2022-12-16T00:35:50;-7.40;99.90
18948;DHT22;9607;51.600;7.558;2022-12-16T00:38:17;-7.40;99.90
18948;DHT22;9607;51.600;7.558;2022-12-16T00:40:45;-7.40;99.90
18948;DHT22;9607;51.600;7.558;2022-12-16T00:43:13;-7.40;99.90
18948;DHT22;9607;51.600;7.558;2022-12-16T00:45:42;-7.40;99.90
18948;DHT22;9607;51.600;7.558;2022-12-16T00:48:09;-7.30;99.90
18948;DHT22;9607;51.600;7.558;2022-12-16T00:50:38;-7.30;99.90
18948;DHT22;9607;51.600;7.558;2022-12-16T00:53:05;-7.30;99.90
18948;DHT22;9607;51.600;7.558;2022-12-16T00:55:33;-7.30;99.90
18948;DHT22;9607;51.600;7.558;2022-12-16T00:58:04;-7.30;99.90
18948;DHT22;9607;51.600;7.558;2022-12-16T01:00:31;-7.40;99.90
18948;DHT22;9607;51.600;7.558;2022-12-16T01:03:00;-7.30;99.90
18948;DHT22;9607;51.600;7.558;2022-12-16T01:05:37;-7.40;99.90
18948;DHT22;9607;51.600;7.558;2022-12-16T01:08:05;-7.40;99.90
18948;DHT22;9607;51.600;7.558;2022-12-16T01:10:32;-7.40;99.90
18948;DHT22;9607;51.600;7.558;2022-12-16T01:13:00;-7.50;99.90
18948;DHT22;9607;51.600;7.558;2022-12-16T01:15:27;-7.50;99.90
18948;DHT22;9607;51.600;7.558;2022-12-16T01:17:54;-7.50;99.90
18948;DHT22;9607;51.600;7.558;2022-12-16T01:20:31;-7.60;99.90
18948;DHT22;9607;51.600;7.558;2022-12-16T01:23:01;-7.60;99.90
18948;DHT22;9607;51.600;7.558;2022-12-16T01:25:28;-7.60;99.90
18948;DHT22;9607;51.600;7.558;2022-12-16T01:27:56;-7.60;99.90
18948;DHT22;9607;51.600;7.558;2022-12-16T01:30:25;-7.70;99.90
18948;DHT22;9607;51.600;7.558;2022-12-16T01:32:56;-7.70;99.90
18948;DHT22;9607;51.600;7.558;2022-12-16T01:35:34;-7.70;99.90
18948;DHT22;9607;51.600;7.558;2022-12-16T01:38:07;-7.70;99.90
18948;DHT22;9607;51.600;7.558;2022-12-16T01:40:36;-7.70;99.90
18948;DHT22;9607;51.600;7.558;2022-12-16T01:43:09;-7.70;99.90
18948;DHT22;9607;51.600;7.558;2022-12-16T01:45:37;-7.70;99.90
18948;DHT22;9607;51.600;7.558;2022-12-16T01:48:14;-7.70;99.90
18948;DHT22;9607;51.600;7.558;2022-12-16T01:50:47;-7.70;99.90
18948;DHT22;9607;51.600;7.558;2022-12-16T01:53:15;-7.70;99.90
18948;DHT22;9607;51.600;7.558;2022-12-16T01:55:47;-7.70;99.90
18948;DHT22;9607;51.600;7.558;2022-12-16T01:58:20;-7.60;99.90
18948;DHT22;9607;51.600;7.558;2022-12-16T02:00:53;-7.60;99.90
18948;DHT22;9607;51.600;7.558;2022-12-16T02:03:23;-7.70;99.90
18948;DHT22;9607;51.600;7.558;2022-12-16T02:05:54;-7.70;99.90
18948;DHT22;9607;51.600;7.558;2022-12-16T02:08:22;-7.70;99.90
18948;DHT22;9607;51.600;7.558;2022-12-16T02:11:07;-7.80;99.90
18948;DHT22;9607;51.600;7.558;2022-12-16T02:13:50;-7.80;99.90
18948;DHT22;9607;51.600;7.558;2022-12-16T02:16:26;-7.80;99.90
18948;DHT22;9607;51.600;7.558;2022-12-16T02:19:01;-7.80;99.90
18948;DHT22;9607;51.600;7.558;2022-12-16T02:21:46;-7.80;99.90
18948;DHT22;9607;51.600;7.558;2022-12-16T02:24:46;-7.80;99.90
18948;DHT22;9607;51.600;7.558;2022-12-16T02:27:41;-7.80;99.90
18948;DHT22;9607;51.600;7.558;2022-12-16T02:30:32;-7.80;99.90
18948;DHT22;9607;51.600;7.558;2022-12-16T02:33:13;-7.80;99.90
18948;DHT22;9607;51.600;7.558;2022-12-16T02:35:49;-7.80;99.90
18948;DHT22;9607;51.600;7.558;2022-12-16T02:38:23;-7.80;99.90
18948;DHT22;9607;51.600;7.558;2022-12-16T02:41:01;-7.80;99.90
18948;DHT22;9607;51.600;7.558;2022-12-16T02:43:48;-7.80;99.90
18948;DHT22;9607;51.600;7.558;2022-12-16T02:46:18;-7.80;99.90
18948;DHT22;9607;51.600;7.558;2022-12-16T02:48:47;-7.80;99.90
18948;DHT22;9607;51.600;7.558;2022-12-16T02:51:14;-7.80;99.90
18948;DHT22;9607;51.600;7.558;2022-12-16T02:53:42;-7.90;99.90
18948;DHT22;9607;51.600;7.558;2022-12-16T02:56:21;-7.90;99.90
18948;DHT22;9607;51.600;7.558;2022-12-16T02:58:55;-7.80;99.90
18948;DHT22;9607;51.600;7.558;2022-12-16T03:01:30;-7.90;99.90
18948;DHT22;9607;51.600;7.558;2022-12-16T03:04:02;-7.90;99.90
18948;DHT22;9607;51.600;7.558;2022-12-16T03:06:32;-7.80;99.90
18948;DHT22;9607;51.600;7.558;2022-12-16T03:09:09;-7.90;99.90
18948;DHT22;9607;51.600;7.558;2022-12-16T03:11:41;-7.90;99.90
18948;DHT22;9607;51.600;7.558;2022-12-16T03:14:11;-8.00;99.90
18948;DHT22;9607;51.600;7.558;2022-12-16T03:16:42;-8.00;99.90
18948;DHT22;9607;51.600;7.558;2022-12-16T03:19:10;-8.00;99.90
18948;DHT22;9607;51.600;7.558;2022-12-16T03:21:42;-8.00;99.90
18948;DHT22;9607;51.600;7.558;2022-12-16T03:24:13;-8.00;99.90
18948;DHT22;9607;51.600;7.558;2022-12-16T03:26:46;-8.00;99.90
18948;DHT22;9607;51.600;7.558;2022-12-16T03:29:25;-8.10;99.90
18948;DHT22;9607;51.600;7.558;2022-12-16T03:31:57;-8.10;99.90
18948;DHT22;9607;51.600;7.558;2022-12-16T03:34:32;-8.10;99.90
18948;DHT22;9607;51.600;7.558;2022-12-16T03:37:06;-8.10;99.90
18948;DHT22;9607;51.600;7.558;2022-12-16T03:39:38;-8.10;99.90
18948;DHT22;9607;51.600;7.558;2022-12-16T03:42:08;-8.10;99.90
18948;DHT22;9607;51.600;7.558;2022-12-16T03:44:36;-8.10;99.90
18948;DHT22;9607;51.600;7.558;2022-12-16T03:47:07;-8.20;99.90
18948;DHT22;9607;51.600;7.558;2022-12-16T03:49:35;-8.10;99.90
18948;DHT22;9607;51.600;7.558;2022-12-16T03:52:03;-8.20;99.90
18948;DHT22;9607;51.600;7.558;2022-12-16T03:54:33;-8.20;99.90
18948;DHT22;9607;51.600;7.558;2022-12-16T03:57:01;-8.20;99.90
18948;DHT22;9607;51.600;7.558;2022-12-16T03:59:28;-8.20;99.90
18948;DHT22;9607;51.600;7.558;2022-12-16T04:01:55;-8.30;99.90
18948;DHT22;9607;51.600;7.558;2022-12-16T04:04:26;-8.30;99.90
18948;DHT22;9607;51.600;7.558;2022-12-16T04:06:53;-8.30;99.90
18948;DHT22;9607;51.600;7.558;2022-12-16T04:09:34;-8.20;99.90
18948;DHT22;9607;51.600;7.558;2022-12-16T04:12:01;-8.10;99.90
18948;DHT22;9607;51.600;7.558;2022-12-16T04:14:46;-8.10;99.90
18948;DHT22;9607;51.600;7.558;2022-12-16T04:17:32;-8.00;99.90
18948;DHT22;9607;51.600;7.558;2022-12-16T04:20:41;-8.00;99.90
18948;DHT22;9607;51.600;7.558;2022-12-16T04:23:29;-8.00;99.90
18948;DHT22;9607;51.600;7.558;2022-12-16T04:26:14;-8.10;99.90
18948;DHT22;9607;51.600;7.558;2022-12-16T04:28:42;-8.10;99.90
18948;DHT22;9607;51.600;7.558;2022-12-16T04:31:09;-8.10;99.90
18948;DHT22;9607;51.600;7.558;2022-12-16T04:33:40;-8.00;99.90
18948;DHT22;9607;51.600;7.558;2022-12-16T04:36:26;-8.00;99.90
18948;DHT22;9607;51.600;7.558;2022-12-16T04:39:10;-8.00;99.90
18948;DHT22;9607;51.600;7.558;2022-12-16T04:41:54;-8.10;99.90
18948;DHT22;9607;51.600;7.558;2022-12-16T04:44:39;-8.10;99.90
18948;DHT22;9607;51.600;7.558;2022-12-16T04:47:24;-8.10;99.90
18948;DHT22;9607;51.600;7.558;2022-12-16T04:50:08;-8.10;99.90
18948;DHT22;9607;51.600;7.558;2022-12-16T04:52:54;-8.20;99.90
18948;DHT22;9607;51.600;7.558;2022-12-16T04:55:39;-8.20;99.90
18948;DHT22;9607;51.600;7.558;2022-12-16T04:58:23;-8.30;99.90
18948;DHT22;9607;51.600;7.558;2022-12-16T05:01:07;-8.30;99.90
18948;DHT22;9607;51.600;7.558;2022-12-16T05:03:51;-8.30;99.90
18948;DHT22;9607;51.600;7.558;2022-12-16T05:06:39;-8.30;99.90
18948;DHT22;9607;51.600;7.558;2022-12-16T05:09:25;-8.40;99.90
18948;DHT22;9607;51.600;7.558;2022-12-16T05:12:09;-8.40;99.90
18948;DHT22;9607;51.600;7.558;2022-12-16T05:14:53;-8.40;99.90
18948;DHT22;9607;51.600;7.558;2022-12-16T05:17:41;-8.40;99.90
18948;DHT22;9607;51.600;7.558;2022-12-16T05:20:25;-8.50;99.90
18948;DHT22;9607;51.600;7.558;2022-12-16T05:23:09;-8.50;99.90
18948;DHT22;9607;51.600;7.558;2022-12-16T05:25:51;-8.50;99.90
18948;DHT22;9607;51.600;7.558;2022-12-16T05:28:36;-8.50;99.90
18948;DHT22;9607;51.600;7.558;2022-12-16T05:31:20;-8.60;99.90
18948;DHT22;9607;51.600;7.558;2022-12-16T05:34:05;-8.60;99.90
18948;DHT22;9607;51.600;7.558;2022-12-16T05:36:49;-8.60;99.90
18948;DHT22;9607;51.600;7.558;2022-12-16T05:39:34;-8.50;99.90
18948;DHT22;9607;51.600;7.558;2022-12-16T05:42:19;-8.40;99.90
18948;DHT22;9607;51.600;7.558;2022-12-16T05:45:07;-8.40;99.90
18948;DHT22;9607;51.600;7.558;2022-12-16T05:47:54;-8.40;99.90
18948;DHT22;9607;51.600;7.558;2022-12-16T05:50:38;-8.30;99.90
18948;DHT22;9607;51.600;7.558;2022-12-16T05:53:23;-8.30;99.90
18948;DHT22;9607;51.600;7.558;2022-12-16T05:56:09;-8.30;99.90
18948;DHT22;9607;51.600;7.558;2022-12-16T05:58:56;-8.40;99.90
18948;DHT22;9607;51.600;7.558;2022-12-16T06:01:42;-8.40;99.90
18948;DHT22;9607;51.600;7.558;2022-12-16T06:04:26;-8.40;99.90
18948;DHT22;9607;51.600;7.558;2022-12-16T06:07:11;-8.40;99.90
18948;DHT22;9607;51.600;7.558;2022-12-16T06:09:55;-8.50;99.90
18948;DHT22;9607;51.600;7.558;2022-12-16T06:12:39;-8.40;99.90
18948;DHT22;9607;51.600;7.558;2022-12-16T06:15:26;-8.40;99.90
18948;DHT22;9607;51.600;7.558;2022-12-16T06:18:10;-8.40;99.90
18948;DHT22;9607;51.600;7.558;2022-12-16T06:20:55;-8.40;99.90
18948;DHT22;9607;51.600;7.558;2022-12-16T06:23:40;-8.40;99.90
18948;DHT22;9607;51.600;7.558;2022-12-16T06:26:24;-8.40;99.90
18948;DHT22;9607;51.600;7.558;2022-12-16T06:29:09;-8.40;99.90
18948;DHT22;9607;51.600;7.558;2022-12-16T06:39:12;-8.50;99.90
18948;DHT22;9607;51.600;7.558;2022-12-16T06:41:56;-8.60;99.90
18948;DHT22;9607;51.600;7.558;2022-12-16T06:44:40;-8.60;99.90
18948;DHT22;9607;51.600;7.558;2022-12-16T06:47:24;-8.60;99.90
18948;DHT22;9607;51.600;7.558;2022-12-16T06:50:09;-8.70;99.90
18948;DHT22;9607;51.600;7.558;2022-12-16T06:52:53;-8.70;99.90
18948;DHT22;9607;51.600;7.558;2022-12-16T06:55:38;-8.70;99.90
18948;DHT22;9607;51.600;7.558;2022-12-16T06:58:23;-8.70;99.90
18948;DHT22;9607;51.600;7.558;2022-12-16T07:01:07;-8.70;99.90
18948;DHT22;9607;51.600;7.558;2022-12-16T07:03:51;-8.70;99.90
18948;DHT22;9607;51.600;7.558;2022-12-16T07:06:35;-8.70;99.90
18948;DHT22;9607;51.600;7.558;2022-12-16T07:09:20;-8.70;99.90
18948;DHT22;9607;51.600;7.558;2022-12-16T07:12:05;-8.70;99.90
18948;DHT22;9607;51.600;7.558;2022-12-16T07:14:49;-8.60;99.90
18948;DHT22;9607;51.600;7.558;2022-12-16T07:17:33;-8.60;99.90
18948;DHT22;9607;51.600;7.558;2022-12-16T07:20:18;-8.60;99.90
18948;DHT22;9607;51.600;7.558;2022-12-16T07:23:02;-8.60;99.90
18948;DHT22;9607;51.600;7.558;2022-12-16T07:25:46;-8.50;99.90
18948;DHT22;9607;51.600;7.558;2022-12-16T07:28:32;-8.50;99.90
18948;DHT22;9607;51.600;7.558;2022-12-16T07:31:16;-8.50;99.90
18948;DHT22;9607;51.600;7.558;2022-12-16T07:34:01;-8.40;99.90
18948;DHT22;9607;51.600;7.558;2022-12-16T07:36:45;-8.40;99.90
18948;DHT22;9607;51.600;7.558;2022-12-16T07:39:29;-8.40;99.90
18948;DHT22;9607;51.600;7.558;2022-12-16T07:42:13;-8.30;99.90
18948;DHT22;9607;51.600;7.558;2022-12-16T07:44:59;-8.30;99.90
18948;DHT22;9607;51.600;7.558;2022-12-16T07:47:46;-8.30;99.90
18948;DHT22;9607;51.600;7.558;2022-12-16T07:50:30;-8.30;99.90
18948;DHT22;9607;51.600;7.558;2022-12-16T07:53:14;-8.30;99.90
18948;DHT22;9607;51.600;7.558;2022-12-16T07:55:59;-8.30;99.90
18948;DHT22;9607;51.600;7.558;2022-12-16T07:58:43;-8.30;99.90
18948;DHT22;9607;51.600;7.558;2022-12-16T08:01:34;-8.30;99.90
18948;DHT22;9607;51.600;7.558;2022-12-16T08:04:18;-8.30;99.90
18948;DHT22;9607;51.600;7.558;2022-12-16T08:07:03;-8.20;99.90
18948;DHT22;9607;51.600;7.558;2022-12-16T08:09:47;-8.20;99.90
18948;DHT22;9607;51.600;7.558;2022-12-16T08:12:32;-8.20;99.90
18948;DHT22;9607;51.600;7.558;2022-12-16T08:15:16;-8.10;99.90
18948;DHT22;9607;51.600;7.558;2022-12-16T08:18:03;-8.10;99.90
18948;DHT22;9607;51.600;7.558;2022-12-16T08:20:47;-8.00;99.90
18948;DHT22;9607;51.600;7.558;2022-12-16T08:23:37;-7.90;99.90
18948;DHT22;9607;51.600;7.558;2022-12-16T08:26:21;-7.80;99.90
18948;DHT22;9607;51.600;7.558;2022-12-16T08:29:06;-7.70;99.90
18948;DHT22;9607;51.600;7.558;2022-12-16T08:31:50;-7.60;99.90
18948;DHT22;9607;51.600;7.558;2022-12-16T08:34:36;-7.50;99.90
18948;DHT22;9607;51.600;7.558;2022-12-16T08:37:20;-7.40;99.90
18948;DHT22;9607;51.600;7.558;2022-12-16T08:40:05;-7.30;99.90
18948;DHT22;9607;51.600;7.558;2022-12-16T08:42:50;-7.20;99.90
18948;DHT22;9607;51.600;7.558;2022-12-16T08:45:34;-7.10;99.90
18948;DHT22;9607;51.600;7.558;2022-12-16T08:48:18;-7.10;99.90
18948;DHT22;9607;51.600;7.558;2022-12-16T08:51:05;-6.90;99.90
18948;DHT22;9607;51.600;7.558;2022-12-16T08:53:49;-6.90;99.90
18948;DHT22;9607;51.600;7.558;2022-12-16T08:56:34;-6.80;99.90
18948;DHT22;9607;51.600;7.558;2022-12-16T08:59:26;-6.60;99.90
18948;DHT22;9607;51.600;7.558;2022-12-16T09:02:11;-6.50;99.90
18948;DHT22;9607;51.600;7.558;2022-12-16T09:04:55;-6.40;99.90
18948;DHT22;9607;51.600;7.558;2022-12-16T09:07:41;-6.30;99.90
18948;DHT22;9607;51.600;7.558;2022-12-16T09:10:26;-6.20;99.90
18948;DHT22;9607;51.600;7.558;2022-12-16T09:13:11;-6.10;99.90
18948;DHT22;9607;51.600;7.558;2022-12-16T09:15:56;-6.00;99.90
18948;DHT22;9607;51.600;7.558;2022-12-16T09:18:41;-5.90;99.90
18948;DHT22;9607;51.600;7.558;2022-12-16T09:21:25;-5.80;99.90
18948;DHT22;9607;51.600;7.558;2022-12-16T09:24:11;-5.70;99.90
18948;DHT22;9607;51.600;7.558;2022-12-16T09:26:55;-5.60;99.90
18948;DHT22;9607;51.600;7.558;2022-12-16T09:29:39;-5.50;99.90
18948;DHT22;9607;51.600;7.558;2022-12-16T09:32:24;-5.40;99.90
18948;DHT22;9607;51.600;7.558;2022-12-16T09:35:08;-5.40;99.90
18948;DHT22;9607;51.600;7.558;2022-12-16T09:37:52;-5.30;99.90
18948;DHT22;9607;51.600;7.558;2022-12-16T09:40:38;-5.20;99.90
18948;DHT22;9607;51.600;7.558;2022-12-16T09:43:34;-5.20;99.90
18948;DHT22;9607;51.600;7.558;2022-12-16T09:46:24;-5.10;99.90
18948;DHT22;9607;51.600;7.558;2022-12-16T09:49:16;-5.00;99.90
18948;DHT22;9607;51.600;7.558;2022-12-16T09:52:05;-4.90;99.90
18948;DHT22;9607;51.600;7.558;2022-12-16T09:54:54;-4.80;99.90
18948;DHT22;9607;51.600;7.558;2022-12-16T09:57:39;-4.70;99.90
18948;DHT22;9607;51.600;7.558;2022-12-16T10:00:26;-4.60;99.90
18948;DHT22;9607;51.600;7.558;2022-12-16T10:03:15;-4.50;99.90
18948;DHT22;9607;51.600;7.558;2022-12-16T10:06:06;-4.40;99.90
18948;DHT22;9607;51.600;7.558;2022-12-16T10:08:57;-4.30;99.90
18948;DHT22;9607;51.600;7.558;2022-12-16T10:11:51;-4.20;99.90
18948;DHT22;9607;51.600;7.558;2022-12-16T10:14:46;-4.10;99.90
18948;DHT22;9607;51.600;7.558;2022-12-16T10:17:34;-4.00;99.90
18948;DHT22;9607;51.600;7.558;2022-12-16T10:20:29;-3.90;99.90
18948;DHT22;9607;51.600;7.558;2022-12-16T10:23:18;-3.80;99.90
18948;DHT22;9607;51.600;7.558;2022-12-16T10:26:09;-3.70;99.90
18948;DHT22;9607;51.600;7.558;2022-12-16T10:29:01;-3.70;99.90
18948;DHT22;9607;51.600;7.558;2022-12-16T10:31:51;-3.60;99.90
18948;DHT22;9607;51.600;7.558;2022-12-16T10:34:35;-3.40;99.90
18948;DHT22;9607;51.600;7.558;2022-12-16T10:37:33;-3.40;99.90
18948;DHT22;9607;51.600;7.558;2022-12-16T10:40:23;-3.30;99.90
18948;DHT22;9607;51.600;7.558;2022-12-16T10:43:12;-3.20;99.90
18948;DHT22;9607;51.600;7.558;2022-12-16T10:45:59;-3.10;99.90
18948;DHT22;9607;51.600;7.558;2022-12-16T10:48:49;-3.00;99.90
18948;DHT22;9607;51.600;7.558;2022-12-16T10:51:33;-2.90;99.90
18948;DHT22;9607;51.600;7.558;2022-12-16T10:54:29;-2.80;99.90
18948;DHT22;9607;51.600;7.558;2022-12-16T10:57:23;-2.70;99.90
18948;DHT22;9607;51.600;7.558;2022-12-16T11:00:39;-2.60;99.90
18948;DHT22;9607;51.600;7.558;2022-12-16T11:03:25;-2.50;99.90
18948;DHT22;9607;51.600;7.558;2022-12-16T11:06:14;-2.40;99.90
18948;DHT22;9607;51.600;7.558;2022-12-16T11:09:14;-2.30;99.90
18948;DHT22;9607;51.600;7.558;2022-12-16T11:12:13;-2.20;99.90
18948;DHT22;9607;51.600;7.558;2022-12-16T11:14:58;-2.10;99.90
18948;DHT22;9607;51.600;7.558;2022-12-16T11:18:03;-2.00;99.90
18948;DHT22;9607;51.600;7.558;2022-12-16T11:21:11;-1.90;99.90
18948;DHT22;9607;51.600;7.558;2022-12-16T11:24:11;-1.80;99.90
18948;DHT22;9607;51.600;7.558;2022-12-16T11:26:57;-1.70;99.90
18948;DHT22;9607;51.600;7.558;2022-12-16T11:29:49;-1.60;99.90
18948;DHT22;9607;51.600;7.558;2022-12-16T11:32:34;-1.60;99.90
18948;DHT22;9607;51.600;7.558;2022-12-16T11:35:23;-1.50;99.90
18948;DHT22;9607;51.600;7.558;2022-12-16T11:38:17;-1.40;99.90
18948;DHT22;9607;51.600;7.558;2022-12-16T11:41:03;-1.30;99.90
18948;DHT22;9607;51.600;7.558;2022-12-16T11:43:50;-1.30;99.90
18948;DHT22;9607;51.600;7.558;2022-12-16T11:46:35;-1.20;99.90
18948;DHT22;9607;51.600;7.558;2022-12-16T11:49:25;-1.10;99.90
18948;DHT22;9607;51.600;7.558;2022-12-16T11:52:13;-1.00;99.90
18948;DHT22;9607;51.600;7.558;2022-12-16T11:55:05;-0.90;99.90
18948;DHT22;9607;51.600;7.558;2022-12-16T11:57:56;-0.80;99.90
18948;DHT22;9607;51.600;7.558;2022-12-16T12:00:51;-0.70;99.90
18948;DHT22;9607;51.600;7.558;2022-12-16T12:03:41;-0.50;99.90
18948;DHT22;9607;51.600;7.558;2022-12-16T12:06:31;0.10;99.90
18948;DHT22;9607;51.600;7.558;2022-12-16T12:09:18;0.50;99.90
18948;DHT22;9607;51.600;7.558;2022-12-16T12:12:12;1.00;99.90
18948;DHT22;9607;51.600;7.558;2022-12-16T12:15:05;1.70;99.90
18948;DHT22;9607;51.600;7.558;2022-12-16T12:18:01;2.50;99.90
18948;DHT22;9607;51.600;7.558;2022-12-16T12:20:52;3.20;99.90
18948;DHT22;9607;51.600;7.558;2022-12-16T12:23:47;3.80;99.90
18948;DHT22;9607;51.600;7.558;2022-12-16T12:26:36;4.10;99.90
18948;DHT22;9607;51.600;7.558;2022-12-16T12:29:29;4.30;99.90
18948;DHT22;9607;51.600;7.558;2022-12-16T12:32:22;4.50;99.90
18948;DHT22;9607;51.600;7.558;2022-12-16T12:35:20;5.00;99.90
18948;DHT22;9607;51.600;7.558;2022-12-16T12:38:11;5.60;99.90
18948;DHT22;9607;51.600;7.558;2022-12-16T12:41:04;6.30;99.90
18948;DHT22;9607;51.600;7.558;2022-12-16T12:44:05;6.80;99.90
18948;DHT22;9607;51.600;7.558;2022-12-16T12:46:57;7.00;99.90
18948;DHT22;9607;51.600;7.558;2022-12-16T12:49:46;7.20;99.90
18948;DHT22;9607;51.600;7.558;2022-12-16T12:55:51;6.40;99.90
18948;DHT22;9607;51.600;7.558;2022-12-16T12:58:38;5.50;99.90
18948;DHT22;9607;51.600;7.558;2022-12-16T13:01:25;4.70;99.90
18948;DHT22;9607;51.600;7.558;2022-12-16T13:04:16;4.00;99.90
18948;DHT22;9607;51.600;7.558;2022-12-16T13:07:01;3.40;99.90
18948;DHT22;9607;51.600;7.558;2022-12-16T13:10:10;2.90;99.90
18948;DHT22;9607;51.600;7.558;2022-12-16T13:13:26;2.40;99.90
18948;DHT22;9607;51.600;7.558;2022-12-16T13:16:13;2.00;99.90
18948;DHT22;9607;51.600;7.558;2022-12-16T13:19:42;1.80;99.90
18948;DHT22;9607;51.600;7.558;2022-12-16T13:22:28;1.50;99.90
18948;DHT22;9607;51.600;7.558;2022-12-16T13:25:32;1.40;99.90
18948;DHT22;9607;51.600;7.558;2022-12-16T13:28:22;1.30;99.90
18948;DHT22;9607;51.600;7.558;2022-12-16T13:31:22;1.20;99.90
18948;DHT22;9607;51.600;7.558;2022-12-16T13:34:20;1.10;99.90
18948;DHT22;9607;51.600;7.558;2022-12-16T13:37:19;1.00;99.90
18948;DHT22;9607;51.600;7.558;2022-12-16T13:40:14;1.00;99.90
18948;DHT22;9607;51.600;7.558;2022-12-16T13:42:59;0.90;99.90
18948;DHT22;9607;51.600;7.558;2022-12-16T13:46:15;0.90;99.90
18948;DHT22;9607;51.600;7.558;2022-12-16T13:52:15;0.80;99.90
18948;DHT22;9607;51.600;7.558;2022-12-16T13:55:11;0.80;99.90
18948;DHT22;9607;51.600;7.558;2022-12-16T13:58:02;0.70;99.90
18948;DHT22;9607;51.600;7.558;2022-12-16T14:00:56;0.70;99.90
18948;DHT22;9607;51.600;7.558;2022-12-16T14:03:46;0.60;99.90
18948;DHT22;9607;51.600;7.558;2022-12-16T14:06:31;0.60;99.90
18948;DHT22;9607;51.600;7.558;2022-12-16T14:09:28;0.50;99.90
18948;DHT22;9607;51.600;7.558;2022-12-16T14:12:19;0.50;99.90
18948;DHT22;9607;51.600;7.558;2022-12-16T14:15:10;0.40;99.90
18948;DHT22;9607;51.600;7.558;2022-12-16T14:18:02;0.40;99.90
18948;DHT22;9607;51.600;7.558;2022-12-16T14:20:58;0.40;99.90
18948;DHT22;9607;51.600;7.558;2022-12-16T14:23:48;0.40;99.90
18948;DHT22;9607;51.600;7.558;2022-12-16T14:26:34;0.40;99.90
18948;DHT22;9607;51.600;7.558;2022-12-16T14:29:21;0.40;99.90
18948;DHT22;9607;51.600;7.558;2022-12-16T14:32:23;0.30;99.90
18948;DHT22;9607;51.600;7.558;2022-12-16T14:35:12;0.30;99.90
18948;DHT22;9607;51.600;7.558;2022-12-16T14:38:20;0.30;99.90
18948;DHT22;9607;51.600;7.558;2022-12-16T14:41:09;0.30;99.90
18948;DHT22;9607;51.600;7.558;2022-12-16T14:43:54;0.30;99.90
18948;DHT22;9607;51.600;7.558;2022-12-16T14:46:38;0.20;99.90
18948;DHT22;9607;51.600;7.558;2022-12-16T14:49:24;0.20;99.90
18948;DHT22;9607;51.600;7.558;2022-12-16T14:52:17;0.10;99.90
18948;DHT22;9607;51.600;7.558;2022-12-16T14:55:16;0.00;99.90
18948;DHT22;9607;51.600;7.558;2022-12-16T14:58:03;0.00;99.90
18948;DHT22;9607;51.600;7.558;2022-12-16T15:00:48;-0.10;99.90
18948;DHT22;9607;51.600;7.558;2022-12-16T15:03:36;-0.20;99.90
18948;DHT22;9607;51.600;7.558;2022-12-16T15:06:24;-0.30;99.90
18948;DHT22;9607;51.600;7.558;2022-12-16T15:09:16;-0.30;99.90
18948;DHT22;9607;51.600;7.558;2022-12-16T15:12:03;-0.40;99.90
18948;DHT22;9607;51.600;7.558;2022-12-16T15:14:50;-0.50;99.90
18948;DHT22;9607;51.600;7.558;2022-12-16T15:17:43;-0.50;99.90
18948;DHT22;9607;51.600;7.558;2022-12-16T15:20:30;-0.60;99.90
18948;DHT22;9607;51.600;7.558;2022-12-16T15:23:19;-0.70;99.90
18948;DHT22;9607;51.600;7.558;2022-12-16T15:26:05;-0.80;99.90
18948;DHT22;9607;51.600;7.558;2022-12-16T15:28:51;-1.00;99.90
18948;DHT22;9607;51.600;7.558;2022-12-16T15:31:37;-1.00;99.90
18948;DHT22;9607;51.600;7.558;2022-12-16T15:34:25;-1.10;99.90
18948;DHT22;9607;51.600;7.558;2022-12-16T15:37:18;-1.20;99.90
18948;DHT22;9607;51.600;7.558;2022-12-16T15:40:04;-1.20;99.90
18948;DHT22;9607;51.600;7.558;2022-12-16T15:42:57;-1.40;99.90
18948;DHT22;9607;51.600;7.558;2022-12-16T15:45:47;-1.40;99.90
18948;DHT22;9607;51.600;7.558;2022-12-16T15:48:34;-1.50;99.90
18948;DHT22;9607;51.600;7.558;2022-12-16T15:51:21;-1.60;99.90
18948;DHT22;9607;51.600;7.558;2022-12-16T15:54:13;-1.70;99.90
18948;DHT22;9607;51.600;7.558;2022-12-16T15:56:58;-1.80;99.90
18948;DHT22;9607;51.600;7.558;2022-12-16T15:59:54;-1.90;99.90
18948;DHT22;9607;51.600;7.558;2022-12-16T16:02:45;-2.00;99.90
18948;DHT22;9607;51.600;7.558;2022-12-16T16:05:31;-2.10;99.90
18948;DHT22;9607;51.600;7.558;2022-12-16T16:08:16;-2.10;99.90
18948;DHT22;9607;51.600;7.558;2022-12-16T16:11:00;-2.20;99.90
18948;DHT22;9607;51.600;7.558;2022-12-16T16:13:45;-2.30;99.90
18948;DHT22;9607;51.600;7.558;2022-12-16T16:16:29;-2.30;99.90
18948;DHT22;9607;51.600;7.558;2022-12-16T16:19:25;-2.40;99.90
18948;DHT22;9607;51.600;7.558;2022-12-16T16:22:11;-2.50;99.90
18948;DHT22;9607;51.600;7.558;2022-12-16T16:24:56;-2.50;99.90
18948;DHT22;9607;51.600;7.558;2022-12-16T16:27:41;-2.50;99.90
18948;DHT22;9607;51.600;7.558;2022-12-16T16:30:25;-2.60;99.90
18948;DHT22;9607;51.600;7.558;2022-12-16T16:33:10;-2.70;99.90
18948;DHT22;9607;51.600;7.558;2022-12-16T16:35:56;-2.70;99.90
18948;DHT22;9607;51.600;7.558;2022-12-16T16:38:40;-2.80;99.90
18948;DHT22;9607;51.600;7.558;2022-12-16T16:41:24;-2.80;99.90
18948;DHT22;9607;51.600;7.558;2022-12-16T16:44:09;-2.90;99.90
18948;DHT22;9607;51.600;7.558;2022-12-16T16:46:53;-3.00;99.90
18948;DHT22;9607;51.600;7.558;2022-12-16T16:49:41;-3.00;99.90
18948;DHT22;9607;51.600;7.558;2022-12-16T16:52:27;-3.10;99.90
18948;DHT22;9607;51.600;7.558;2022-12-16T16:55:14;-3.20;99.90
18948;DHT22;9607;51.600;7.558;2022-12-16T16:57:59;-3.30;99.90
18948;DHT22;9607;51.600;7.558;2022-12-16T17:00:44;-3.40;99.90
18948;DHT22;9607;51.600;7.558;2022-12-16T17:03:29;-3.40;99.90
18948;DHT22;9607;51.600;7.558;2022-12-16T17:06:13;-3.40;99.90
18948;DHT22;9607;51.600;7.558;2022-12-16T17:08:58;-3.40;99.90
18948;DHT22;9607;51.600;7.558;2022-12-16T17:11:43;-3.40;99.90
18948;DHT22;9607;51.600;7.558;2022-12-16T17:14:27;-3.50;99.90
18948;DHT22;9607;51.600;7.558;2022-12-16T17:17:11;-3.60;99.90
18948;DHT22;9607;51.600;7.558;2022-12-16T17:19:56;-3.60;99.90
18948;DHT22;9607;51.600;7.558;2022-12-16T17:22:40;-3.70;99.90
18948;DHT22;9607;51.600;7.558;2022-12-16T17:25:26;-3.70;99.90
18948;DHT22;9607;51.600;7.558;2022-12-16T17:28:11;-3.70;99.90
18948;DHT22;9607;51.600;7.558;2022-12-16T17:30:55;-3.80;99.90
18948;DHT22;9607;51.600;7.558;2022-12-16T17:33:39;-3.80;99.90
18948;DHT22;9607;51.600;7.558;2022-12-16T17:36:24;-3.80;99.90
18948;DHT22;9607;51.600;7.558;2022-12-16T17:39:09;-3.80;99.90
18948;DHT22;9607;51.600;7.558;2022-12-16T17:41:55;-3.90;99.90
18948;DHT22;9607;51.600;7.558;2022-12-16T17:44:39;-3.90;99.90
18948;DHT22;9607;51.600;7.558;2022-12-16T17:47:24;-3.90;99.90